Terminal Aerodrome Forecast
Issued by NWS

Home | Current Version | Previous Version | Text Only | Print | Product List | Glossary On
Versions: 1 2 3 4 5 6 7 8 9 10 11 12 13 14 15
000
FTUS45 KTFX 271153 RRA
TAFCTB
TAF
KCTB 271153Z 2712/2812 33006KT P6SM SCT040 BKN090 PROB30 2721/2802
      TSRA BKN040CB
     FM280300 VRB03KT P6SM OVC050=

USA.gov is the U.S. government's official web portal to all federal, state and local government web resources and services.